KLRD/LRD METAR and TAF weather

Enter ICAO airport designator
Station Type Date Time Source
KLRD METAR 2020/01/22 17:56 UTC NOAA

KLRD 221756Z 22005KT 10SM OVC007 16/14 A2999 RMK AO2 RAB08E22 CIG 006V012 SLP156 P0000 60001 T01610144 10161 20128 58020


Station Type Date Time Source
KLRD Decoded METAR 2020/01/22 17:56 UTC NOAA

Laredo, Laredo International Airport, TX, United States (KLRD) 27-32-37N 099-27-41W
Jan 22, 2020 - 12:56 PM EST / 2020.01.22 1756 UTC
Wind: from the SW (220 degrees) at 6 MPH (5 KT):0
Visibility: 10 mile(s):0
Sky conditions: overcast
Precipitation last hour: A trace
Temperature: 61.0 F (16.1 C)
Dew Point: 57.9 F (14.4 C)
Relative Humidity: 89%
Pressure (altimeter): 29.99 in. Hg (1015 hPa)
Pressure tendency: 0.06 inches (2.0 hPa) lower than three hours ago
ob: KLRD 221756Z 22005KT 10SM OVC007 16/14 A2999 RMK AO2 RAB08E22 CIG 006V012 SLP156 P0000 60001 T01610144 10161 20128 58020
cycle: 18

Station Type Date Time Source
KLRD TAF 2020/01/22 18:36 UTC NOAA

TAF KLRD 221732Z 2218/2318 13006KT P6SM OVC008
TEMPO 2218/2220 5SM -RA BR
FM222000 18008KT P6SM BKN018 OVC150
FM222200 21004KT P6SM SCT020 BKN250
FM230400 22003KT 4SM BR SCT005
FM230800 VRB03KT 2SM BR BKN004
FM231400 31008KT P6SM SKC

Example: see airport list